sensor_id;sensor_type;location;lat;lon;timestamp;P1;durP1;ratioP1;P2;durP2;ratioP2
49548;SDS011;35450;44.518;7.466;2022-09-09T00:00:16;6.85;;;3.78;;
49548;SDS011;35450;44.518;7.466;2022-09-09T00:03:25;4.95;;;3.45;;
49548;SDS011;35450;44.518;7.466;2022-09-09T00:06:32;9.60;;;3.72;;
49548;SDS011;35450;44.518;7.466;2022-09-09T00:16:32;8.43;;;3.53;;
49548;SDS011;35450;44.518;7.466;2022-09-09T00:22:59;8.20;;;3.25;;
49548;SDS011;35450;44.518;7.466;2022-09-09T00:29:28;4.90;;;3.65;;
49548;SDS011;35450;44.518;7.466;2022-09-09T00:32:39;7.53;;;3.17;;
49548;SDS011;35450;44.518;7.466;2022-09-09T00:35:45;4.88;;;3.47;;
49548;SDS011;35450;44.518;7.466;2022-09-09T00:38:52;6.72;;;3.40;;
49548;SDS011;35450;44.518;7.466;2022-09-09T00:55:48;6.53;;;3.53;;
49548;SDS011;35450;44.518;7.466;2022-09-09T01:06:22;8.68;;;3.90;;
49548;SDS011;35450;44.518;7.466;2022-09-09T01:12:46;5.57;;;3.30;;
49548;SDS011;35450;44.518;7.466;2022-09-09T01:15:59;7.63;;;3.28;;
49548;SDS011;35450;44.518;7.466;2022-09-09T01:19:20;9.95;;;3.80;;
49548;SDS011;35450;44.518;7.466;2022-09-09T01:22:40;9.05;;;3.67;;
49548;SDS011;35450;44.518;7.466;2022-09-09T01:29:23;7.63;;;3.33;;
49548;SDS011;35450;44.518;7.466;2022-09-09T01:32:44;8.27;;;3.72;;
49548;SDS011;35450;44.518;7.466;2022-09-09T01:35:54;7.70;;;3.42;;
49548;SDS011;35450;44.518;7.466;2022-09-09T01:39:08;7.63;;;3.35;;
49548;SDS011;35450;44.518;7.466;2022-09-09T01:42:15;9.73;;;4.05;;
49548;SDS011;35450;44.518;7.466;2022-09-09T01:45:20;7.63;;;2.70;;
49548;SDS011;35450;44.518;7.466;2022-09-09T01:48:25;13.55;;;3.50;;
49548;SDS011;35450;44.518;7.466;2022-09-09T01:51:50;4.90;;;2.75;;
49548;SDS011;35450;44.518;7.466;2022-09-09T01:55:05;6.68;;;2.80;;
49548;SDS011;35450;44.518;7.466;2022-09-09T02:04:51;5.10;;;3.40;;
49548;SDS011;35450;44.518;7.466;2022-09-09T02:08:03;9.57;;;4.07;;
49548;SDS011;35450;44.518;7.466;2022-09-09T02:11:26;9.05;;;3.78;;
49548;SDS011;35450;44.518;7.466;2022-09-09T02:14:50;13.52;;;3.70;;
49548;SDS011;35450;44.518;7.466;2022-09-09T02:18:07;7.72;;;4.20;;
49548;SDS011;35450;44.518;7.466;2022-09-09T02:21:14;5.95;;;3.53;;
49548;SDS011;35450;44.518;7.466;2022-09-09T02:24:19;7.63;;;3.58;;
49548;SDS011;35450;44.518;7.466;2022-09-09T02:27:31;8.85;;;4.07;;
49548;SDS011;35450;44.518;7.466;2022-09-09T02:30:36;8.00;;;3.83;;
49548;SDS011;35450;44.518;7.466;2022-09-09T02:33:42;9.82;;;4.32;;
49548;SDS011;35450;44.518;7.466;2022-09-09T02:36:49;8.70;;;4.00;;
49548;SDS011;35450;44.518;7.466;2022-09-09T02:39:57;9.75;;;4.13;;
49548;SDS011;35450;44.518;7.466;2022-09-09T02:43:02;10.00;;;3.88;;
49548;SDS011;35450;44.518;7.466;2022-09-09T02:53:18;11.82;;;4.78;;
49548;SDS011;35450;44.518;7.466;2022-09-09T02:56:29;6.00;;;3.78;;
49548;SDS011;35450;44.518;7.466;2022-09-09T02:59:36;7.40;;;3.95;;
49548;SDS011;35450;44.518;7.466;2022-09-09T03:02:41;8.20;;;4.65;;
49548;SDS011;35450;44.518;7.466;2022-09-09T03:05:45;14.80;;;4.80;;
49548;SDS011;35450;44.518;7.466;2022-09-09T03:08:50;12.70;;;4.13;;
49548;SDS011;35450;44.518;7.466;2022-09-09T03:12:00;9.23;;;3.90;;
49548;SDS011;35450;44.518;7.466;2022-09-09T03:15:07;12.45;;;3.47;;
49548;SDS011;35450;44.518;7.466;2022-09-09T03:18:13;7.97;;;3.97;;
49548;SDS011;35450;44.518;7.466;2022-09-09T03:21:17;7.57;;;3.90;;
49548;SDS011;35450;44.518;7.466;2022-09-09T03:24:22;8.48;;;3.95;;
49548;SDS011;35450;44.518;7.466;2022-09-09T03:27:26;9.88;;;3.80;;
49548;SDS011;35450;44.518;7.466;2022-09-09T03:30:30;7.57;;;3.55;;
49548;SDS011;35450;44.518;7.466;2022-09-09T03:33:36;8.30;;;3.40;;
49548;SDS011;35450;44.518;7.466;2022-09-09T03:36:41;11.85;;;4.70;;
49548;SDS011;35450;44.518;7.466;2022-09-09T03:39:45;13.63;;;5.25;;
49548;SDS011;35450;44.518;7.466;2022-09-09T03:42:50;18.63;;;4.90;;
49548;SDS011;35450;44.518;7.466;2022-09-09T03:45:54;16.45;;;5.15;;
49548;SDS011;35450;44.518;7.466;2022-09-09T03:49:00;26.27;;;5.60;;
49548;SDS011;35450;44.518;7.466;2022-09-09T03:52:08;20.30;;;5.82;;
49548;SDS011;35450;44.518;7.466;2022-09-09T03:55:13;8.07;;;4.13;;
49548;SDS011;35450;44.518;7.466;2022-09-09T03:58:18;18.95;;;5.32;;
49548;SDS011;35450;44.518;7.466;2022-09-09T04:01:23;20.85;;;5.88;;
49548;SDS011;35450;44.518;7.466;2022-09-09T04:04:27;15.43;;;5.45;;
49548;SDS011;35450;44.518;7.466;2022-09-09T04:07:31;10.85;;;5.40;;
49548;SDS011;35450;44.518;7.466;2022-09-09T04:10:35;17.52;;;5.95;;
49548;SDS011;35450;44.518;7.466;2022-09-09T04:13:42;12.43;;;5.95;;
49548;SDS011;35450;44.518;7.466;2022-09-09T04:16:49;13.70;;;5.97;;
49548;SDS011;35450;44.518;7.466;2022-09-09T04:19:53;12.50;;;5.68;;
49548;SDS011;35450;44.518;7.466;2022-09-09T04:22:57;10.38;;;4.40;;
49548;SDS011;35450;44.518;7.466;2022-09-09T04:26:01;11.15;;;4.95;;
49548;SDS011;35450;44.518;7.466;2022-09-09T04:29:07;9.18;;;4.07;;
49548;SDS011;35450;44.518;7.466;2022-09-09T04:32:11;5.78;;;3.22;;
49548;SDS011;35450;44.518;7.466;2022-09-09T04:35:17;7.07;;;2.60;;
49548;SDS011;35450;44.518;7.466;2022-09-09T04:38:22;9.80;;;2.53;;
49548;SDS011;35450;44.518;7.466;2022-09-09T04:41:27;10.82;;;2.33;;
49548;SDS011;35450;44.518;7.466;2022-09-09T04:44:32;3.85;;;1.80;;
49548;SDS011;35450;44.518;7.466;2022-09-09T04:47:36;4.53;;;1.20;;
49548;SDS011;35450;44.518;7.466;2022-09-09T04:50:40;3.33;;;1.20;;
49548;SDS011;35450;44.518;7.466;2022-09-09T04:53:47;2.42;;;1.50;;
49548;SDS011;35450;44.518;7.466;2022-09-09T04:56:54;4.75;;;1.80;;
49548;SDS011;35450;44.518;7.466;2022-09-09T04:59:58;4.32;;;2.40;;
49548;SDS011;35450;44.518;7.466;2022-09-09T05:03:06;25.55;;;4.40;;
49548;SDS011;35450;44.518;7.466;2022-09-09T05:06:17;4.18;;;2.35;;
49548;SDS011;35450;44.518;7.466;2022-09-09T05:09:25;10.27;;;2.22;;
49548;SDS011;35450;44.518;7.466;2022-09-09T05:12:30;14.05;;;11.80;;
49548;SDS011;35450;44.518;7.466;2022-09-09T05:15:35;12.38;;;3.00;;
49548;SDS011;35450;44.518;7.466;2022-09-09T05:18:39;4.68;;;2.30;;
49548;SDS011;35450;44.518;7.466;2022-09-09T05:21:46;13.38;;;4.00;;
49548;SDS011;35450;44.518;7.466;2022-09-09T05:24:53;9.65;;;4.00;;
49548;SDS011;35450;44.518;7.466;2022-09-09T05:27:58;8.93;;;2.47;;
49548;SDS011;35450;44.518;7.466;2022-09-09T05:31:06;4.15;;;2.38;;
49548;SDS011;35450;44.518;7.466;2022-09-09T05:34:13;6.05;;;2.67;;
49548;SDS011;35450;44.518;7.466;2022-09-09T05:37:17;3.38;;;2.38;;
49548;SDS011;35450;44.518;7.466;2022-09-09T05:40:22;8.18;;;2.70;;
49548;SDS011;35450;44.518;7.466;2022-09-09T05:43:27;6.95;;;2.70;;
49548;SDS011;35450;44.518;7.466;2022-09-09T05:46:33;7.13;;;3.25;;
49548;SDS011;35450;44.518;7.466;2022-09-09T05:49:37;15.73;;;4.10;;
49548;SDS011;35450;44.518;7.466;2022-09-09T05:52:41;7.93;;;3.40;;
49548;SDS011;35450;44.518;7.466;2022-09-09T05:55:46;8.38;;;3.47;;
49548;SDS011;35450;44.518;7.466;2022-09-09T05:58:51;13.88;;;5.07;;
49548;SDS011;35450;44.518;7.466;2022-09-09T06:01:58;6.60;;;4.40;;
49548;SDS011;35450;44.518;7.466;2022-09-09T06:05:08;13.40;;;6.18;;
49548;SDS011;35450;44.518;7.466;2022-09-09T06:08:12;8.93;;;6.35;;
49548;SDS011;35450;44.518;7.466;2022-09-09T06:11:17;9.60;;;6.22;;
49548;SDS011;35450;44.518;7.466;2022-09-09T06:14:23;16.25;;;5.78;;
49548;SDS011;35450;44.518;7.466;2022-09-09T06:17:29;7.63;;;6.10;;
49548;SDS011;35450;44.518;7.466;2022-09-09T06:20:34;26.80;;;6.93;;
49548;SDS011;35450;44.518;7.466;2022-09-09T06:23:39;30.13;;;7.57;;
49548;SDS011;35450;44.518;7.466;2022-09-09T06:26:44;26.30;;;5.57;;
49548;SDS011;35450;44.518;7.466;2022-09-09T06:29:52;26.35;;;5.30;;
49548;SDS011;35450;44.518;7.466;2022-09-09T06:32:58;17.17;;;4.50;;
49548;SDS011;35450;44.518;7.466;2022-09-09T06:36:02;6.53;;;3.92;;
49548;SDS011;35450;44.518;7.466;2022-09-09T06:39:07;8.57;;;4.13;;
49548;SDS011;35450;44.518;7.466;2022-09-09T06:42:14;5.95;;;3.95;;
49548;SDS011;35450;44.518;7.466;2022-09-09T06:45:37;14.93;;;4.45;;
49548;SDS011;35450;44.518;7.466;2022-09-09T06:48:42;13.48;;;5.10;;
49548;SDS011;35450;44.518;7.466;2022-09-09T06:51:49;11.38;;;4.60;;
49548;SDS011;35450;44.518;7.466;2022-09-09T06:54:55;6.03;;;3.90;;
49548;SDS011;35450;44.518;7.466;2022-09-09T06:58:02;7.22;;;3.80;;
49548;SDS011;35450;44.518;7.466;2022-09-09T07:01:12;6.60;;;3.67;;
49548;SDS011;35450;44.518;7.466;2022-09-09T07:04:18;10.60;;;3.70;;
49548;SDS011;35450;44.518;7.466;2022-09-09T07:07:23;12.43;;;3.47;;
49548;SDS011;35450;44.518;7.466;2022-09-09T07:10:28;9.85;;;3.45;;
49548;SDS011;35450;44.518;7.466;2022-09-09T07:13:32;11.52;;;3.70;;
49548;SDS011;35450;44.518;7.466;2022-09-09T07:16:37;12.10;;;3.67;;
49548;SDS011;35450;44.518;7.466;2022-09-09T07:19:42;10.07;;;3.40;;
49548;SDS011;35450;44.518;7.466;2022-09-09T07:22:46;5.07;;;2.50;;
49548;SDS011;35450;44.518;7.466;2022-09-09T07:25:51;65.68;;;5.80;;
49548;SDS011;35450;44.518;7.466;2022-09-09T07:28:56;14.23;;;2.95;;
49548;SDS011;35450;44.518;7.466;2022-09-09T07:32:01;49.30;;;4.47;;
49548;SDS011;35450;44.518;7.466;2022-09-09T07:35:10;15.07;;;3.53;;
49548;SDS011;35450;44.518;7.466;2022-09-09T07:38:15;14.75;;;2.83;;
49548;SDS011;35450;44.518;7.466;2022-09-09T07:41:27;9.73;;;2.20;;
49548;SDS011;35450;44.518;7.466;2022-09-09T07:44:35;6.38;;;1.83;;
49548;SDS011;35450;44.518;7.466;2022-09-09T07:47:47;7.05;;;2.60;;
49548;SDS011;35450;44.518;7.466;2022-09-09T07:50:52;4.38;;;2.63;;
49548;SDS011;35450;44.518;7.466;2022-09-09T07:53:58;9.40;;;3.35;;
49548;SDS011;35450;44.518;7.466;2022-09-09T07:57:07;6.82;;;2.92;;
49548;SDS011;35450;44.518;7.466;2022-09-09T08:00:14;13.20;;;2.90;;
49548;SDS011;35450;44.518;7.466;2022-09-09T08:03:22;14.48;;;3.20;;
49548;SDS011;35450;44.518;7.466;2022-09-09T08:06:28;8.75;;;2.78;;
49548;SDS011;35450;44.518;7.466;2022-09-09T08:09:38;6.97;;;3.50;;
49548;SDS011;35450;44.518;7.466;2022-09-09T08:13:12;13.18;;;6.85;;
49548;SDS011;35450;44.518;7.466;2022-09-09T08:16:19;12.55;;;5.05;;
49548;SDS011;35450;44.518;7.466;2022-09-09T08:19:26;7.70;;;4.57;;
49548;SDS011;35450;44.518;7.466;2022-09-09T08:22:33;27.38;;;4.43;;
49548;SDS011;35450;44.518;7.466;2022-09-09T08:25:38;15.90;;;4.10;;
49548;SDS011;35450;44.518;7.466;2022-09-09T08:28:43;6.47;;;3.72;;
49548;SDS011;35450;44.518;7.466;2022-09-09T08:31:49;16.73;;;4.07;;
49548;SDS011;35450;44.518;7.466;2022-09-09T08:34:57;6.38;;;4.00;;
49548;SDS011;35450;44.518;7.466;2022-09-09T08:38:01;14.68;;;4.85;;
49548;SDS011;35450;44.518;7.466;2022-09-09T08:41:30;9.10;;;4.95;;
49548;SDS011;35450;44.518;7.466;2022-09-09T08:44:59;11.15;;;5.50;;
49548;SDS011;35450;44.518;7.466;2022-09-09T08:48:28;6.20;;;5.10;;
49548;SDS011;35450;44.518;7.466;2022-09-09T08:52:02;17.02;;;5.75;;
49548;SDS011;35450;44.518;7.466;2022-09-09T08:58:33;25.80;;;5.30;;
49548;SDS011;35450;44.518;7.466;2022-09-09T09:01:44;11.77;;;5.00;;
49548;SDS011;35450;44.518;7.466;2022-09-09T09:05:15;13.35;;;5.32;;
49548;SDS011;35450;44.518;7.466;2022-09-09T09:12:06;14.23;;;5.22;;
49548;SDS011;35450;44.518;7.466;2022-09-09T09:15:16;14.10;;;4.80;;
49548;SDS011;35450;44.518;7.466;2022-09-09T09:18:26;10.65;;;5.47;;
49548;SDS011;35450;44.518;7.466;2022-09-09T09:21:36;11.05;;;4.82;;
49548;SDS011;35450;44.518;7.466;2022-09-09T09:24:50;12.30;;;5.43;;
49548;SDS011;35450;44.518;7.466;2022-09-09T09:31:53;22.40;;;6.13;;
49548;SDS011;35450;44.518;7.466;2022-09-09T09:35:02;15.32;;;5.25;;
49548;SDS011;35450;44.518;7.466;2022-09-09T09:38:15;11.68;;;4.82;;
49548;SDS011;35450;44.518;7.466;2022-09-09T09:44:45;11.18;;;5.72;;
49548;SDS011;35450;44.518;7.466;2022-09-09T09:48:05;18.45;;;5.55;;
49548;SDS011;35450;44.518;7.466;2022-09-09T09:54:22;7.70;;;5.47;;
49548;SDS011;35450;44.518;7.466;2022-09-09T09:57:38;11.18;;;5.35;;
49548;SDS011;35450;44.518;7.466;2022-09-09T10:00:49;5.47;;;4.95;;
49548;SDS011;35450;44.518;7.466;2022-09-09T10:03:57;10.57;;;4.93;;
49548;SDS011;35450;44.518;7.466;2022-09-09T10:07:18;7.22;;;4.93;;
49548;SDS011;35450;44.518;7.466;2022-09-09T10:10:25;8.45;;;5.55;;
49548;SDS011;35450;44.518;7.466;2022-09-09T10:20:28;7.47;;;4.68;;
49548;SDS011;35450;44.518;7.466;2022-09-09T10:23:46;7.05;;;4.50;;
49548;SDS011;35450;44.518;7.466;2022-09-09T10:30:24;6.50;;;3.67;;
49548;SDS011;35450;44.518;7.466;2022-09-09T10:37:02;7.10;;;4.30;;
49548;SDS011;35450;44.518;7.466;2022-09-09T10:57:20;12.85;;;3.85;;
49548;SDS011;35450;44.518;7.466;2022-09-09T11:00:42;7.63;;;2.67;;
49548;SDS011;35450;44.518;7.466;2022-09-09T11:03:52;13.75;;;4.00;;
49548;SDS011;35450;44.518;7.466;2022-09-09T11:07:05;9.05;;;2.05;;
49548;SDS011;35450;44.518;7.466;2022-09-09T11:17:36;13.55;;;2.58;;
49548;SDS011;35450;44.518;7.466;2022-09-09T11:20:47;9.27;;;2.10;;
49548;SDS011;35450;44.518;7.466;2022-09-09T11:23:55;11.38;;;1.98;;
49548;SDS011;35450;44.518;7.466;2022-09-09T11:27:21;9.48;;;2.03;;
49548;SDS011;35450;44.518;7.466;2022-09-09T11:40:35;29.98;;;2.88;;
49548;SDS011;35450;44.518;7.466;2022-09-09T11:43:44;15.88;;;1.90;;
49548;SDS011;35450;44.518;7.466;2022-09-09T11:46:50;26.13;;;2.50;;
49548;SDS011;35450;44.518;7.466;2022-09-09T11:50:41;53.42;;;3.33;;
49548;SDS011;35450;44.518;7.466;2022-09-09T11:53:20;52.35;;;3.55;;
49548;SDS011;35450;44.518;7.466;2022-09-09T11:56:59;7.28;;;1.65;;
49548;SDS011;35450;44.518;7.466;2022-09-09T11:59:56;3.88;;;1.73;;
49548;SDS011;35450;44.518;7.466;2022-09-09T12:03:00;5.00;;;1.27;;
49548;SDS011;35450;44.518;7.466;2022-09-09T12:06:48;3.67;;;1.27;;
49548;SDS011;35450;44.518;7.466;2022-09-09T12:13:16;6.13;;;1.63;;
49548;SDS011;35450;44.518;7.466;2022-09-09T12:16:38;3.95;;;1.23;;
49548;SDS011;35450;44.518;7.466;2022-09-09T12:19:43;5.80;;;1.50;;
49548;SDS011;35450;44.518;7.466;2022-09-09T12:22:50;6.00;;;1.80;;
49548;SDS011;35450;44.518;7.466;2022-09-09T12:30:12;9.00;;;1.60;;
49548;SDS011;35450;44.518;7.466;2022-09-09T12:33:06;6.85;;;1.35;;
49548;SDS011;35450;44.518;7.466;2022-09-09T12:36:15;3.17;;;1.45;;
49548;SDS011;35450;44.518;7.466;2022-09-09T12:39:34;5.65;;;1.27;;
49548;SDS011;35450;44.518;7.466;2022-09-09T12:42:45;3.33;;;1.33;;
49548;SDS011;35450;44.518;7.466;2022-09-09T12:45:50;4.70;;;1.20;;
49548;SDS011;35450;44.518;7.466;2022-09-09T12:49:01;3.03;;;1.00;;
49548;SDS011;35450;44.518;7.466;2022-09-09T12:52:06;5.38;;;1.13;;
49548;SDS011;35450;44.518;7.466;2022-09-09T12:55:33;4.75;;;1.10;;
49548;SDS011;35450;44.518;7.466;2022-09-09T12:58:44;5.47;;;1.08;;
49548;SDS011;35450;44.518;7.466;2022-09-09T13:01:55;3.15;;;1.08;;
49548;SDS011;35450;44.518;7.466;2022-09-09T13:05:12;1.83;;;0.40;;
49548;SDS011;35450;44.518;7.466;2022-09-09T13:08:21;3.92;;;0.20;;
49548;SDS011;35450;44.518;7.466;2022-09-09T13:11:26;5.43;;;0.20;;
49548;SDS011;35450;44.518;7.466;2022-09-09T13:14:39;20.40;;;0.32;;
49548;SDS011;35450;44.518;7.466;2022-09-09T13:17:51;2.30;;;0.20;;
49548;SDS011;35450;44.518;7.466;2022-09-09T13:20:57;0.10;;;0.05;;
49548;SDS011;35450;44.518;7.466;2022-09-09T13:24:01;2.80;;;0.30;;
49548;SDS011;35450;44.518;7.466;2022-09-09T13:27:29;1.27;;;0.13;;
49548;SDS011;35450;44.518;7.466;2022-09-09T13:30:37;5.38;;;0.20;;
49548;SDS011;35450;44.518;7.466;2022-09-09T13:33:46;3.10;;;0.17;;
49548;SDS011;35450;44.518;7.466;2022-09-09T13:36:50;2.90;;;0.30;;
49548;SDS011;35450;44.518;7.466;2022-09-09T13:39:55;1.00;;;0.20;;
49548;SDS011;35450;44.518;7.466;2022-09-09T13:42:59;1.38;;;0.20;;
49548;SDS011;35450;44.518;7.466;2022-09-09T13:46:58;2.70;;;0.10;;
49548;SDS011;35450;44.518;7.466;2022-09-09T13:49:46;5.15;;;0.25;;
49548;SDS011;35450;44.518;7.466;2022-09-09T13:52:57;3.85;;;0.38;;
49548;SDS011;35450;44.518;7.466;2022-09-09T13:56:02;2.65;;;0.30;;
49548;SDS011;35450;44.518;7.466;2022-09-09T13:59:09;0.45;;;0.10;;
49548;SDS011;35450;44.518;7.466;2022-09-09T14:05:21;0.13;;;0.08;;
49548;SDS011;35450;44.518;7.466;2022-09-09T14:08:26;2.10;;;0.20;;
49548;SDS011;35450;44.518;7.466;2022-09-09T14:11:39;0.13;;;0.10;;
49548;SDS011;35450;44.518;7.466;2022-09-09T14:14:44;0.75;;;0.20;;
49548;SDS011;35450;44.518;7.466;2022-09-09T14:17:48;0.47;;;0.20;;
49548;SDS011;35450;44.518;7.466;2022-09-09T14:20:52;1.05;;;0.20;;
49548;SDS011;35450;44.518;7.466;2022-09-09T14:23:57;0.20;;;0.15;;
49548;SDS011;35450;44.518;7.466;2022-09-09T14:27:01;0.32;;;0.10;;
49548;SDS011;35450;44.518;7.466;2022-09-09T14:30:05;0.63;;;0.17;;
49548;SDS011;35450;44.518;7.466;2022-09-09T14:33:11;2.33;;;0.43;;
49548;SDS011;35450;44.518;7.466;2022-09-09T14:36:17;0.60;;;0.10;;
49548;SDS011;35450;44.518;7.466;2022-09-09T14:39:22;0.55;;;0.10;;
49548;SDS011;35450;44.518;7.466;2022-09-09T14:42:26;0.65;;;0.10;;
49548;SDS011;35450;44.518;7.466;2022-09-09T14:45:31;4.47;;;0.10;;
49548;SDS011;35450;44.518;7.466;2022-09-09T14:48:35;0.47;;;0.10;;
49548;SDS011;35450;44.518;7.466;2022-09-09T14:51:39;0.93;;;0.20;;
49548;SDS011;35450;44.518;7.466;2022-09-09T14:54:44;0.43;;;0.10;;
49548;SDS011;35450;44.518;7.466;2022-09-09T14:57:47;0.35;;;0.10;;
49548;SDS011;35450;44.518;7.466;2022-09-09T15:00:52;2.60;;;0.10;;
49548;SDS011;35450;44.518;7.466;2022-09-09T15:03:57;0.43;;;0.10;;
49548;SDS011;35450;44.518;7.466;2022-09-09T15:07:03;0.22;;;0.22;;
49548;SDS011;35450;44.518;7.466;2022-09-09T15:10:07;1.15;;;0.50;;
49548;SDS011;35450;44.518;7.466;2022-09-09T15:13:11;0.73;;;0.30;;
49548;SDS011;35450;44.518;7.466;2022-09-09T15:16:19;2.40;;;0.10;;
49548;SDS011;35450;44.518;7.466;2022-09-09T15:19:25;0.43;;;0.10;;
49548;SDS011;35450;44.518;7.466;2022-09-09T15:22:29;1.38;;;0.22;;
49548;SDS011;35450;44.518;7.466;2022-09-09T15:25:32;1.65;;;0.30;;
49548;SDS011;35450;44.518;7.466;2022-09-09T15:28:37;16.27;;;0.40;;
49548;SDS011;35450;44.518;7.466;2022-09-09T15:31:41;28.20;;;1.25;;
49548;SDS011;35450;44.518;7.466;2022-09-09T15:34:46;1.75;;;0.10;;
49548;SDS011;35450;44.518;7.466;2022-09-09T15:37:50;13.57;;;0.50;;
49548;SDS011;35450;44.518;7.466;2022-09-09T15:40:55;6.22;;;0.70;;
49548;SDS011;35450;44.518;7.466;2022-09-09T15:44:00;2.22;;;0.30;;
49548;SDS011;35450;44.518;7.466;2022-09-09T15:47:05;0.17;;;0.10;;
49548;SDS011;35450;44.518;7.466;2022-09-09T15:50:09;3.15;;;0.20;;
49548;SDS011;35450;44.518;7.466;2022-09-09T15:53:13;5.28;;;0.73;;
49548;SDS011;35450;44.518;7.466;2022-09-09T15:56:17;0.57;;;0.22;;
49548;SDS011;35450;44.518;7.466;2022-09-09T15:59:26;1.92;;;0.20;;
49548;SDS011;35450;44.518;7.466;2022-09-09T16:02:32;0.30;;;0.10;;
49548;SDS011;35450;44.518;7.466;2022-09-09T16:05:36;2.53;;;0.10;;
49548;SDS011;35450;44.518;7.466;2022-09-09T16:08:42;2.65;;;0.10;;
49548;SDS011;35450;44.518;7.466;2022-09-09T16:11:48;2.25;;;0.10;;
49548;SDS011;35450;44.518;7.466;2022-09-09T16:14:52;0.17;;;0.10;;
49548;SDS011;35450;44.518;7.466;2022-09-09T16:17:56;0.10;;;0.10;;
49548;SDS011;35450;44.518;7.466;2022-09-09T16:21:01;0.65;;;0.13;;
49548;SDS011;35450;44.518;7.466;2022-09-09T16:24:05;1.27;;;0.10;;
49548;SDS011;35450;44.518;7.466;2022-09-09T16:27:10;0.50;;;0.10;;
49548;SDS011;35450;44.518;7.466;2022-09-09T16:30:14;0.43;;;0.17;;
49548;SDS011;35450;44.518;7.466;2022-09-09T16:33:18;0.38;;;0.00;;
49548;SDS011;35450;44.518;7.466;2022-09-09T16:36:29;1.80;;;0.20;;
49548;SDS011;35450;44.518;7.466;2022-09-09T16:39:35;0.10;;;0.10;;
49548;SDS011;35450;44.518;7.466;2022-09-09T16:42:39;0.30;;;0.10;;
49548;SDS011;35450;44.518;7.466;2022-09-09T16:45:43;0.32;;;0.10;;
49548;SDS011;35450;44.518;7.466;2022-09-09T16:48:48;1.88;;;0.10;;
49548;SDS011;35450;44.518;7.466;2022-09-09T16:51:52;2.63;;;0.20;;
49548;SDS011;35450;44.518;7.466;2022-09-09T16:54:56;3.92;;;0.30;;
49548;SDS011;35450;44.518;7.466;2022-09-09T16:58:00;3.63;;;0.10;;
49548;SDS011;35450;44.518;7.466;2022-09-09T17:01:04;0.80;;;0.20;;
49548;SDS011;35450;44.518;7.466;2022-09-09T17:04:09;3.90;;;0.10;;
49548;SDS011;35450;44.518;7.466;2022-09-09T17:07:16;3.28;;;0.20;;
49548;SDS011;35450;44.518;7.466;2022-09-09T17:10:23;0.13;;;0.10;;
49548;SDS011;35450;44.518;7.466;2022-09-09T17:13:28;1.75;;;0.10;;
49548;SDS011;35450;44.518;7.466;2022-09-09T17:16:32;2.08;;;0.20;;
49548;SDS011;35450;44.518;7.466;2022-09-09T17:19:37;0.30;;;0.10;;
49548;SDS011;35450;44.518;7.466;2022-09-09T17:22:41;0.70;;;0.10;;
49548;SDS011;35450;44.518;7.466;2022-09-09T17:25:45;2.85;;;0.10;;
49548;SDS011;35450;44.518;7.466;2022-09-09T17:29:03;0.50;;;0.20;;
49548;SDS011;35450;44.518;7.466;2022-09-09T17:32:07;0.57;;;0.10;;
49548;SDS011;35450;44.518;7.466;2022-09-09T17:35:11;0.50;;;0.20;;
49548;SDS011;35450;44.518;7.466;2022-09-09T17:38:15;1.08;;;0.28;;
49548;SDS011;35450;44.518;7.466;2022-09-09T17:41:40;0.40;;;0.10;;
49548;SDS011;35450;44.518;7.466;2022-09-09T17:44:44;0.55;;;0.10;;
49548;SDS011;35450;44.518;7.466;2022-09-09T17:47:48;0.82;;;0.10;;
49548;SDS011;35450;44.518;7.466;2022-09-09T17:51:01;1.63;;;0.30;;
49548;SDS011;35450;44.518;7.466;2022-09-09T17:54:08;3.03;;;0.30;;
49548;SDS011;35450;44.518;7.466;2022-09-09T17:57:15;1.10;;;0.20;;
49548;SDS011;35450;44.518;7.466;2022-09-09T18:00:22;0.20;;;0.15;;
49548;SDS011;35450;44.518;7.466;2022-09-09T18:03:26;2.55;;;0.10;;
49548;SDS011;35450;44.518;7.466;2022-09-09T18:07:04;1.45;;;0.13;;
49548;SDS011;35450;44.518;7.466;2022-09-09T18:10:01;2.78;;;0.20;;
49548;SDS011;35450;44.518;7.466;2022-09-09T18:13:05;0.45;;;0.20;;
49548;SDS011;35450;44.518;7.466;2022-09-09T18:16:12;0.50;;;0.20;;
49548;SDS011;35450;44.518;7.466;2022-09-09T18:19:17;4.97;;;0.88;;
49548;SDS011;35450;44.518;7.466;2022-09-09T18:22:23;1.60;;;0.30;;
49548;SDS011;35450;44.518;7.466;2022-09-09T18:25:28;1.60;;;0.10;;
49548;SDS011;35450;44.518;7.466;2022-09-09T18:28:32;1.23;;;0.30;;
49548;SDS011;35450;44.518;7.466;2022-09-09T18:31:36;0.45;;;0.22;;
49548;SDS011;35450;44.518;7.466;2022-09-09T18:34:40;1.13;;;0.20;;
49548;SDS011;35450;44.518;7.466;2022-09-09T18:37:45;0.52;;;0.30;;
49548;SDS011;35450;44.518;7.466;2022-09-09T18:40:50;0.20;;;0.10;;
49548;SDS011;35450;44.518;7.466;2022-09-09T18:43:59;0.52;;;0.20;;
49548;SDS011;35450;44.518;7.466;2022-09-09T18:47:05;6.10;;;1.30;;
49548;SDS011;35450;44.518;7.466;2022-09-09T18:50:10;0.30;;;0.30;;
49548;SDS011;35450;44.518;7.466;2022-09-09T18:53:14;2.92;;;0.40;;
49548;SDS011;35450;44.518;7.466;2022-09-09T18:56:18;4.88;;;0.55;;
49548;SDS011;35450;44.518;7.466;2022-09-09T18:59:22;3.30;;;0.40;;
49548;SDS011;35450;44.518;7.466;2022-09-09T19:02:26;1.85;;;0.22;;
49548;SDS011;35450;44.518;7.466;2022-09-09T19:05:30;0.10;;;0.10;;
49548;SDS011;35450;44.518;7.466;2022-09-09T19:08:35;2.55;;;0.20;;
49548;SDS011;35450;44.518;7.466;2022-09-09T19:11:40;0.35;;;0.20;;
49548;SDS011;35450;44.518;7.466;2022-09-09T19:14:44;0.20;;;0.20;;
49548;SDS011;35450;44.518;7.466;2022-09-09T19:17:48;0.85;;;0.25;;
49548;SDS011;35450;44.518;7.466;2022-09-09T19:20:52;0.70;;;0.20;;
49548;SDS011;35450;44.518;7.466;2022-09-09T19:27:05;0.17;;;0.10;;
49548;SDS011;35450;44.518;7.466;2022-09-09T19:30:09;0.35;;;0.32;;
49548;SDS011;35450;44.518;7.466;2022-09-09T19:33:13;0.55;;;0.10;;
49548;SDS011;35450;44.518;7.466;2022-09-09T19:36:17;0.30;;;0.10;;
49548;SDS011;35450;44.518;7.466;2022-09-09T19:39:21;1.58;;;0.35;;
49548;SDS011;35450;44.518;7.466;2022-09-09T19:42:26;2.00;;;0.20;;
49548;SDS011;35450;44.518;7.466;2022-09-09T19:45:32;1.33;;;0.20;;
49548;SDS011;35450;44.518;7.466;2022-09-09T19:48:37;0.75;;;0.10;;
49548;SDS011;35450;44.518;7.466;2022-09-09T19:51:43;1.05;;;0.20;;
49548;SDS011;35450;44.518;7.466;2022-09-09T19:54:48;0.30;;;0.10;;
49548;SDS011;35450;44.518;7.466;2022-09-09T19:57:52;1.48;;;0.20;;
49548;SDS011;35450;44.518;7.466;2022-09-09T20:00:56;0.65;;;0.15;;
49548;SDS011;35450;44.518;7.466;2022-09-09T20:04:08;1.40;;;0.28;;
49548;SDS011;35450;44.518;7.466;2022-09-09T20:07:12;0.68;;;0.10;;
49548;SDS011;35450;44.518;7.466;2022-09-09T20:10:17;4.82;;;0.20;;
49548;SDS011;35450;44.518;7.466;2022-09-09T20:13:21;0.75;;;0.10;;
49548;SDS011;35450;44.518;7.466;2022-09-09T20:16:26;4.95;;;0.20;;
49548;SDS011;35450;44.518;7.466;2022-09-09T20:19:31;3.92;;;0.28;;
49548;SDS011;35450;44.518;7.466;2022-09-09T20:22:35;2.88;;;0.30;;
49548;SDS011;35450;44.518;7.466;2022-09-09T20:25:39;2.20;;;0.40;;
49548;SDS011;35450;44.518;7.466;2022-09-09T20:28:43;0.55;;;0.20;;
49548;SDS011;35450;44.518;7.466;2022-09-09T20:31:49;2.40;;;0.25;;
49548;SDS011;35450;44.518;7.466;2022-09-09T20:34:53;4.32;;;0.40;;
49548;SDS011;35450;44.518;7.466;2022-09-09T20:37:57;2.25;;;0.30;;
49548;SDS011;35450;44.518;7.466;2022-09-09T20:41:02;0.40;;;0.17;;
49548;SDS011;35450;44.518;7.466;2022-09-09T20:44:25;1.67;;;0.20;;
49548;SDS011;35450;44.518;7.466;2022-09-09T20:47:29;0.57;;;0.20;;
49548;SDS011;35450;44.518;7.466;2022-09-09T20:50:34;1.52;;;0.40;;
49548;SDS011;35450;44.518;7.466;2022-09-09T20:53:39;0.75;;;0.60;;
49548;SDS011;35450;44.518;7.466;2022-09-09T20:56:44;1.08;;;0.22;;
49548;SDS011;35450;44.518;7.466;2022-09-09T20:59:49;0.28;;;0.15;;
49548;SDS011;35450;44.518;7.466;2022-09-09T21:02:53;0.43;;;0.20;;